Time,TemperatureF,DewpointF,PressureIn,WindDirection,WindDirectionDegrees,WindSpeedMPH,WindSpeedGustMPH,Humidity,HourlyPrecipIn,Conditions,Clouds,dailyrainin,SoftwareType,DateUTC
2013-05-12 00:01:00,71.1,62.4,29.92,West,270,0.0,2.0,74,0.00,,,0.00,meteohub,2013-05-12 04:01:00,
2013-05-12 00:02:00,71.1,62.4,29.92,West,270,0.0,2.0,74,0.00,,,0.00,meteohub,2013-05-12 04:02:00,
2013-05-12 00:04:00,71.1,62.4,29.92,West,270,0.0,2.0,74,0.00,,,0.00,meteohub,2013-05-12 04:04:00,
2013-05-12 00:09:00,71.1,62.4,29.92,West,270,0.0,2.0,74,0.00,,,0.00,meteohub,2013-05-12 04:09:00,
2013-05-12 00:14:00,70.9,62.6,29.92,West,270,0.0,1.0,75,0.00,,,0.00,meteohub,2013-05-12 04:14:00,
2013-05-12 00:19:00,70.7,62.4,29.92,West,270,0.0,0.0,75,0.00,,,0.00,meteohub,2013-05-12 04:19:00,
2013-05-12 00:25:00,70.5,62.2,29.92,West,270,0.0,0.0,75,0.00,,,0.00,meteohub,2013-05-12 04:25:00,
2013-05-12 00:30:00,70.3,62.4,29.91,West,270,0.0,0.0,76,0.00,,,0.00,meteohub,2013-05-12 04:30:00,
2013-05-12 00:35:00,70.2,62.2,29.91,West,270,0.0,0.0,76,0.00,,,0.00,meteohub,2013-05-12 04:35:00,
2013-05-12 00:40:00,70.0,62.4,29.91,West,270,0.0,0.0,77,0.00,,,0.00,meteohub,2013-05-12 04:40:00,
2013-05-12 00:45:00,70.0,62.4,29.91,West,270,0.0,0.0,77,0.00,,,0.00,meteohub,2013-05-12 04:45:00,
2013-05-12 00:50:00,70.0,62.4,29.91,West,270,0.0,0.0,77,0.00,,,0.00,meteohub,2013-05-12 04:50:00,
2013-05-12 00:56:00,69.8,62.2,29.92,West,270,0.0,0.0,77,0.00,,,0.00,meteohub,2013-05-12 04:56:00,
2013-05-12 01:01:00,69.6,62.8,29.92,West,270,0.0,0.0,79,0.00,,,0.00,meteohub,2013-05-12 05:01:00,
2013-05-12 01:06:00,69.6,62.8,29.93,West,270,0.0,0.0,79,0.00,,,0.00,meteohub,2013-05-12 05:06:00,
2013-05-12 01:11:00,69.4,62.6,29.93,West,270,0.0,0.0,79,0.00,,,0.00,meteohub,2013-05-12 05:11:00,
2013-05-12 01:17:00,69.4,62.6,29.93,West,270,0.0,0.0,79,0.00,,,0.00,meteohub,2013-05-12 05:17:00,
2013-05-12 01:22:00,69.6,62.4,29.94,West,270,0.0,0.0,78,0.00,,,0.00,meteohub,2013-05-12 05:22:00,
2013-05-12 01:28:00,69.6,62.4,29.94,West,270,0.0,0.0,78,0.00,,,0.00,meteohub,2013-05-12 05:28:00,
2013-05-12 01:33:00,69.6,62.4,29.94,West,270,0.0,0.0,78,0.00,,,0.00,meteohub,2013-05-12 05:33:00,
2013-05-12 01:38:00,69.4,61.9,29.94,West,270,0.0,0.0,77,0.00,,,0.00,meteohub,2013-05-12 05:38:00,
2013-05-12 01:43:00,69.4,61.9,29.94,West,270,0.0,0.0,77,0.00,,,0.00,meteohub,2013-05-12 05:43:00,
2013-05-12 01:48:00,69.4,62.2,29.94,West,270,0.0,0.0,78,0.00,,,0.00,meteohub,2013-05-12 05:48:00,
2013-05-12 01:53:00,69.3,62.1,29.94,West,270,0.0,0.0,78,0.00,,,0.00,meteohub,2013-05-12 05:53:00,
2013-05-12 01:58:00,69.1,62.2,29.93,West,270,0.0,0.0,79,0.00,,,0.00,meteohub,2013-05-12 05:58:00,
2013-05-12 02:04:00,69.1,62.2,29.93,West,270,0.0,0.0,79,0.00,,,0.00,meteohub,2013-05-12 06:04:00,
2013-05-12 02:09:00,68.5,62.4,29.93,West,270,0.0,0.0,81,0.00,,,0.00,meteohub,2013-05-12 06:09:00,
2013-05-12 02:14:00,68.0,62.6,29.93,West,270,0.0,0.0,83,0.00,,,0.00,meteohub,2013-05-12 06:14:00,
2013-05-12 02:19:00,67.6,62.6,29.93,West,270,0.0,0.0,84,0.00,,,0.00,meteohub,2013-05-12 06:19:00,
2013-05-12 02:24:00,67.3,62.6,29.93,West,270,0.0,0.0,85,0.00,,,0.00,meteohub,2013-05-12 06:24:00,
2013-05-12 02:29:00,67.1,62.8,29.93,West,270,0.0,0.0,86,0.00,,,0.00,meteohub,2013-05-12 06:29:00,
2013-05-12 02:34:00,66.9,63.0,29.93,West,270,0.0,0.0,87,0.00,,,0.00,meteohub,2013-05-12 06:34:00,
2013-05-12 02:39:00,66.7,62.8,29.93,West,270,0.0,0.0,87,0.00,,,0.00,meteohub,2013-05-12 06:39:00,
2013-05-12 02:44:00,66.6,63.0,29.93,West,270,0.0,0.0,88,0.00,,,0.00,meteohub,2013-05-12 06:44:00,
2013-05-12 02:50:00,66.6,63.0,29.93,West,270,0.0,0.0,88,0.00,,,0.00,meteohub,2013-05-12 06:50:00,
2013-05-12 02:55:00,66.4,63.0,29.94,West,270,0.0,0.0,89,0.00,,,0.00,meteohub,2013-05-12 06:55:00,
2013-05-12 03:00:00,66.4,62.8,29.94,West,270,0.0,0.0,88,0.00,,,0.00,meteohub,2013-05-12 07:00:00,
2013-05-12 03:05:00,66.2,62.6,29.93,West,270,0.0,0.0,88,0.00,,,0.00,meteohub,2013-05-12 07:05:00,
2013-05-12 03:11:00,66.2,62.2,29.94,West,270,0.0,0.0,87,0.00,,,0.00,meteohub,2013-05-12 07:11:00,
2013-05-12 03:16:00,66.2,62.2,29.93,West,270,0.0,0.0,87,0.00,,,0.00,meteohub,2013-05-12 07:16:00,
2013-05-12 03:21:00,66.0,62.1,29.93,West,270,0.0,0.0,87,0.00,,,0.00,meteohub,2013-05-12 07:21:00,
2013-05-12 03:26:00,66.0,62.1,29.94,West,270,0.0,1.0,87,0.00,,,0.00,meteohub,2013-05-12 07:26:00,
2013-05-12 03:31:00,65.8,61.9,29.94,West,270,0.0,1.0,87,0.00,,,0.00,meteohub,2013-05-12 07:31:00,
2013-05-12 03:36:00,65.8,62.2,29.94,West,270,0.0,0.0,88,0.00,,,0.00,meteohub,2013-05-12 07:36:00,
2013-05-12 03:41:00,65.7,62.1,29.94,West,270,0.0,0.0,88,0.00,,,0.00,meteohub,2013-05-12 07:41:00,
2013-05-12 03:47:00,65.7,62.1,29.94,West,270,0.0,0.0,88,0.00,,,0.00,meteohub,2013-05-12 07:47:00,
2013-05-12 03:52:00,65.7,62.1,29.93,West,270,0.0,0.0,88,0.00,,,0.00,meteohub,2013-05-12 07:52:00,
2013-05-12 03:57:00,65.7,62.1,29.94,West,270,0.0,0.0,88,0.00,,,0.00,meteohub,2013-05-12 07:57:00,
2013-05-12 04:02:00,65.7,62.1,29.94,NW,315,1.0,0.0,88,0.00,,,0.00,meteohub,2013-05-12 08:02:00,
2013-05-12 04:07:00,65.7,62.1,29.93,NW,315,1.0,1.0,88,0.00,,,0.00,meteohub,2013-05-12 08:07:00,
2013-05-12 04:12:00,65.7,61.7,29.94,NW,315,0.0,1.0,87,0.00,,,0.00,meteohub,2013-05-12 08:12:00,
2013-05-12 04:17:00,65.5,61.5,29.94,NW,315,0.0,1.0,87,0.00,,,0.00,meteohub,2013-05-12 08:17:00,
2013-05-12 04:23:00,65.3,61.3,29.93,NW,315,0.0,1.0,87,0.00,,,0.00,meteohub,2013-05-12 08:23:00,
2013-05-12 04:28:00,65.1,61.2,29.93,NW,315,0.0,1.0,87,0.00,,,0.00,meteohub,2013-05-12 08:28:00,
2013-05-12 04:33:00,65.1,61.2,29.93,NW,315,0.0,1.0,87,0.00,,,0.00,meteohub,2013-05-12 08:33:00,
2013-05-12 04:38:00,64.9,61.3,29.93,NW,315,0.0,1.0,88,0.00,,,0.00,meteohub,2013-05-12 08:38:00,
2013-05-12 04:43:00,64.9,61.3,29.94,NW,315,0.0,1.0,88,0.00,,,0.00,meteohub,2013-05-12 08:43:00,
2013-05-12 04:49:00,64.9,61.3,29.94,NW,315,0.0,0.0,88,0.00,,,0.00,meteohub,2013-05-12 08:49:00,
2013-05-12 04:54:00,64.9,61.3,29.93,West,270,0.0,0.0,88,0.00,,,0.00,meteohub,2013-05-12 08:54:00,
2013-05-12 04:59:00,64.9,61.3,29.93,NW,315,0.0,1.0,88,0.00,,,0.00,meteohub,2013-05-12 08:59:00,
2013-05-12 05:04:00,64.9,61.3,29.93,NW,315,0.0,1.0,88,0.00,,,0.00,meteohub,2013-05-12 09:04:00,
2013-05-12 05:09:00,64.9,61.3,29.93,NW,315,0.0,1.0,88,0.00,,,0.00,meteohub,2013-05-12 09:09:00,
2013-05-12 05:14:00,64.9,61.7,29.93,NW,315,0.0,0.0,89,0.00,,,0.00,meteohub,2013-05-12 09:14:00,
2013-05-12 05:19:00,64.9,61.7,29.93,NW,315,0.0,0.0,89,0.00,,,0.00,meteohub,2013-05-12 09:19:00,
2013-05-12 05:24:00,64.9,61.7,29.93,NW,315,0.0,0.0,89,0.00,,,0.00,meteohub,2013-05-12 09:24:00,
2013-05-12 05:29:00,64.9,61.7,29.94,NW,315,0.0,0.0,89,0.00,,,0.00,meteohub,2013-05-12 09:29:00,
2013-05-12 05:34:00,64.8,61.5,29.94,NW,315,2.0,0.0,89,0.00,,,0.00,meteohub,2013-05-12 09:34:00,
2013-05-12 05:39:00,64.8,61.5,29.94,NNW,338,0.0,2.0,89,0.00,,,0.00,meteohub,2013-05-12 09:39:00,
2013-05-12 05:44:00,64.8,61.5,29.94,NW,315,0.0,2.0,89,0.00,,,0.00,meteohub,2013-05-12 09:44:00,
2013-05-12 05:49:00,64.9,61.3,29.95,North,0,1.0,2.0,88,0.00,,,0.00,meteohub,2013-05-12 09:49:00,
2013-05-12 05:54:00,64.8,60.4,29.95,North,0,0.0,0.0,86,0.00,,,0.00,meteohub,2013-05-12 09:54:00,
2013-05-12 05:59:00,64.8,60.1,29.94,North,0,0.0,1.0,85,0.00,,,0.00,meteohub,2013-05-12 09:59:00,
2013-05-12 06:04:00,64.8,59.9,29.95,NW,315,0.0,1.0,84,0.00,,,0.00,meteohub,2013-05-12 10:04:00,
2013-05-12 06:10:00,64.6,57.2,29.95,NE,45,1.0,1.0,77,0.00,,,0.00,meteohub,2013-05-12 10:10:00,
2013-05-12 06:15:00,64.6,56.5,29.95,North,0,0.0,4.0,75,0.00,,,0.00,meteohub,2013-05-12 10:15:00,
2013-05-12 06:20:00,64.4,56.3,29.95,NE,45,0.0,4.0,75,0.00,,,0.00,meteohub,2013-05-12 10:20:00,
2013-05-12 06:25:00,64.2,55.8,29.95,North,0,1.0,2.0,74,0.00,,,0.00,meteohub,2013-05-12 10:25:00,
2013-05-12 06:30:00,64.0,54.9,29.96,NW,315,4.0,4.0,72,0.00,,,0.00,meteohub,2013-05-12 10:30:00,
2013-05-12 06:35:00,63.9,54.7,29.97,NW,315,0.0,4.0,72,0.00,,,0.00,meteohub,2013-05-12 10:35:00,
2013-05-12 06:40:00,63.5,54.0,29.96,North,0,1.0,4.0,71,0.00,,,0.00,meteohub,2013-05-12 10:40:00,
2013-05-12 06:45:00,63.3,53.8,29.96,North,0,1.0,4.0,71,0.00,,,0.00,meteohub,2013-05-12 10:45:00,
2013-05-12 06:50:00,63.1,53.6,29.96,North,0,2.0,3.0,71,0.00,,,0.00,meteohub,2013-05-12 10:50:00,
2013-05-12 06:55:00,63.1,53.6,29.97,North,0,2.0,2.0,71,0.00,,,0.00,meteohub,2013-05-12 10:55:00,
2013-05-12 07:01:00,63.1,53.6,29.97,NW,315,0.0,2.0,71,0.00,,,0.00,meteohub,2013-05-12 11:01:00,
2013-05-12 07:06:00,63.1,53.6,29.97,NW,315,0.0,2.0,71,0.00,,,0.00,meteohub,2013-05-12 11:06:00,
2013-05-12 07:11:00,63.1,53.2,29.97,North,0,0.0,3.0,70,0.00,,,0.00,meteohub,2013-05-12 11:11:00,
2013-05-12 07:16:00,63.0,53.1,29.97,NW,315,0.0,3.0,70,0.00,,,0.00,meteohub,2013-05-12 11:16:00,
2013-05-12 07:21:00,63.0,53.4,29.97,North,0,1.0,3.0,71,0.00,,,0.00,meteohub,2013-05-12 11:21:00,
2013-05-12 07:26:00,63.0,53.4,29.98,North,0,0.0,3.0,71,0.00,,,0.00,meteohub,2013-05-12 11:26:00,
2013-05-12 07:31:00,63.0,53.4,29.98,North,0,1.0,2.0,71,0.00,,,0.00,meteohub,2013-05-12 11:31:00,
2013-05-12 07:36:00,63.0,53.4,29.98,NW,315,0.0,2.0,71,0.00,,,0.00,meteohub,2013-05-12 11:36:00,
2013-05-12 07:41:00,62.8,52.5,29.98,NW,315,1.0,3.0,69,0.00,,,0.00,meteohub,2013-05-12 11:41:00,
2013-05-12 07:46:00,62.6,52.7,29.98,North,0,0.0,3.0,70,0.00,,,0.00,meteohub,2013-05-12 11:46:00,
2013-05-12 07:52:00,62.6,53.1,29.98,North,0,3.0,3.0,71,0.00,,,0.00,meteohub,2013-05-12 11:52:00,
2013-05-12 07:57:00,62.6,53.1,29.98,NW,315,0.0,3.0,71,0.00,,,0.00,meteohub,2013-05-12 11:57:00,
2013-05-12 08:02:00,62.6,53.1,29.99,West,270,0.0,3.0,71,0.00,,,0.00,meteohub,2013-05-12 12:02:00,
2013-05-12 08:07:00,62.6,53.1,29.99,West,270,1.0,3.0,71,0.00,,,0.00,meteohub,2013-05-12 12:07:00,
2013-05-12 08:12:00,62.8,53.2,29.99,West,270,1.0,2.0,71,0.00,,,0.00,meteohub,2013-05-12 12:12:00,
2013-05-12 08:17:00,63.0,53.1,30.00,NW,315,2.0,2.0,70,0.00,,,0.00,meteohub,2013-05-12 12:17:00,
2013-05-12 08:23:00,63.0,53.1,29.99,NW,315,0.0,2.0,70,0.00,,,0.00,meteohub,2013-05-12 12:23:00,
2013-05-12 08:28:00,63.0,52.2,29.99,NW,315,2.0,2.0,68,0.00,,,0.00,meteohub,2013-05-12 12:28:00,
2013-05-12 08:33:00,63.1,51.6,30.00,North,0,2.0,3.0,66,0.00,,,0.00,meteohub,2013-05-12 12:33:00,
2013-05-12 08:38:00,63.9,52.3,30.00,North,0,3.0,3.0,66,0.00,,,0.00,meteohub,2013-05-12 12:38:00,
2013-05-12 08:43:00,64.2,51.4,30.00,West,270,2.0,3.0,63,0.00,,,0.00,meteohub,2013-05-12 12:43:00,
2013-05-12 08:48:00,64.4,52.0,30.00,NW,315,2.0,3.0,64,0.00,,,0.00,meteohub,2013-05-12 12:48:00,
2013-05-12 08:53:00,64.4,52.3,30.00,SW,225,0.0,3.0,65,0.00,,,0.00,meteohub,2013-05-12 12:53:00,
2013-05-12 08:58:00,64.2,51.4,30.01,NW,315,4.0,4.0,63,0.00,,,0.00,meteohub,2013-05-12 12:58:00,
2013-05-12 09:04:00,64.4,52.3,30.00,North,0,1.0,2.0,65,0.00,,,0.00,meteohub,2013-05-12 13:04:00,
2013-05-12 09:09:00,64.8,51.4,30.01,NW,315,2.0,4.0,62,0.00,,,0.00,meteohub,2013-05-12 13:09:00,
2013-05-12 09:14:00,65.1,51.8,30.01,West,270,1.0,4.0,62,0.00,,,0.00,meteohub,2013-05-12 13:14:00,
2013-05-12 09:19:00,65.7,51.8,30.01,West,270,0.0,3.0,61,0.00,,,0.00,meteohub,2013-05-12 13:19:00,
2013-05-12 09:24:00,65.8,52.5,30.01,SE,135,0.0,3.0,62,0.00,,,0.00,meteohub,2013-05-12 13:24:00,
2013-05-12 09:29:00,65.7,51.4,30.01,North,0,1.0,2.0,60,0.00,,,0.00,meteohub,2013-05-12 13:29:00,
2013-05-12 09:34:00,65.7,51.4,30.01,West,270,0.0,2.0,60,0.00,,,0.00,meteohub,2013-05-12 13:34:00,
2013-05-12 09:39:00,65.8,51.1,30.01,NW,315,2.0,2.0,59,0.00,,,0.00,meteohub,2013-05-12 13:39:00,
2013-05-12 09:45:00,66.0,51.8,30.01,North,0,4.0,4.0,60,0.00,,,0.00,meteohub,2013-05-12 13:45:00,
2013-05-12 09:50:00,66.4,50.7,30.01,North,0,3.0,4.0,57,0.00,,,0.00,meteohub,2013-05-12 13:50:00,
2013-05-12 09:55:00,66.6,49.8,30.01,North,0,2.0,4.0,55,0.00,,,0.00,meteohub,2013-05-12 13:55:00,
2013-05-12 10:00:00,67.1,50.4,30.01,North,0,3.0,4.0,55,0.00,,,0.00,meteohub,2013-05-12 14:00:00,
2013-05-12 10:05:00,67.5,50.2,30.01,WNW,293,3.0,4.0,54,0.00,,,0.00,meteohub,2013-05-12 14:05:00,
2013-05-12 10:10:00,67.5,50.7,30.01,NW,315,2.0,4.0,55,0.00,,,0.00,meteohub,2013-05-12 14:10:00,
2013-05-12 10:15:00,67.5,50.7,30.01,NW,315,2.0,4.0,55,0.00,,,0.00,meteohub,2013-05-12 14:15:00,
2013-05-12 10:20:00,67.6,50.4,30.01,NNW,338,3.0,4.0,54,0.00,,,0.00,meteohub,2013-05-12 14:20:00,
2013-05-12 10:25:00,67.8,51.1,30.01,West,270,3.0,4.0,55,0.00,,,0.00,meteohub,2013-05-12 14:25:00,
2013-05-12 10:31:00,67.8,50.5,30.01,NW,315,2.0,4.0,54,0.00,,,0.00,meteohub,2013-05-12 14:31:00,
2013-05-12 10:36:00,68.0,50.2,30.01,North,0,2.0,4.0,53,0.00,,,0.00,meteohub,2013-05-12 14:36:00,
2013-05-12 10:41:00,68.4,49.5,30.01,North,0,2.0,4.0,51,0.00,,,0.00,meteohub,2013-05-12 14:41:00,
2013-05-12 10:46:00,69.1,49.6,30.01,West,270,2.0,4.0,50,0.00,,,0.00,meteohub,2013-05-12 14:46:00,
2013-05-12 10:51:00,69.3,50.4,30.01,SW,225,2.0,4.0,51,0.00,,,0.00,meteohub,2013-05-12 14:51:00,
2013-05-12 10:57:00,69.6,51.3,30.00,NW,315,2.0,3.0,52,0.00,,,0.00,meteohub,2013-05-12 14:57:00,
2013-05-12 11:02:00,69.8,50.9,30.00,NW,315,2.0,3.0,51,0.00,,,0.00,meteohub,2013-05-12 15:02:00,
2013-05-12 11:07:00,70.9,51.3,30.01,West,270,0.0,3.0,50,0.00,,,0.00,meteohub,2013-05-12 15:07:00,
2013-05-12 11:13:00,71.2,50.5,30.00,North,0,2.0,2.0,48,0.00,,,0.00,meteohub,2013-05-12 15:13:00,
2013-05-12 11:19:00,71.4,50.7,30.01,NW,315,0.0,3.0,48,0.00,,,0.00,meteohub,2013-05-12 15:19:00,
2013-05-12 11:24:00,71.4,50.7,30.01,NW,315,1.0,3.0,48,0.00,,,0.00,meteohub,2013-05-12 15:24:00,
2013-05-12 11:29:00,71.4,50.2,30.01,West,270,4.0,4.0,47,0.00,,,0.00,meteohub,2013-05-12 15:29:00,
2013-05-12 11:35:00,71.4,51.3,30.01,North,0,4.0,4.0,49,0.00,,,0.00,meteohub,2013-05-12 15:35:00,
2013-05-12 11:40:00,70.9,49.1,30.01,NW,315,2.0,4.0,46,0.00,,,0.00,meteohub,2013-05-12 15:40:00,
2013-05-12 11:46:00,70.9,49.6,30.01,West,270,3.0,4.0,47,0.00,,,0.00,meteohub,2013-05-12 15:46:00,
2013-05-12 11:51:00,70.5,50.4,30.01,West,270,3.0,4.0,49,0.00,,,0.00,meteohub,2013-05-12 15:51:00,
2013-05-12 11:57:00,70.7,50.0,30.00,NW,315,2.0,4.0,48,0.00,,,0.00,meteohub,2013-05-12 15:57:00,
2013-05-12 12:02:00,71.4,50.2,30.01,East,90,0.0,3.0,47,0.00,,,0.00,meteohub,2013-05-12 16:02:00,
2013-05-12 12:07:00,71.2,48.7,30.01,West,270,2.0,3.0,45,0.00,,,0.00,meteohub,2013-05-12 16:07:00,
2013-05-12 12:12:00,71.1,50.4,30.01,West,270,0.0,4.0,48,0.00,,,0.00,meteohub,2013-05-12 16:12:00,
2013-05-12 12:17:00,71.4,50.2,30.00,South,180,3.0,4.0,47,0.00,,,0.00,meteohub,2013-05-12 16:17:00,
2013-05-12 12:22:00,70.9,50.2,30.01,NW,315,4.0,4.0,48,0.00,,,0.00,meteohub,2013-05-12 16:22:00,
2013-05-12 12:28:00,70.2,49.6,30.01,SW,225,2.0,4.0,48,0.00,,,0.00,meteohub,2013-05-12 16:28:00,
2013-05-12 12:33:00,70.5,48.7,30.00,West,270,1.0,4.0,46,0.00,,,0.00,meteohub,2013-05-12 16:33:00,
2013-05-12 12:38:00,70.5,49.8,30.00,North,0,0.0,4.0,48,0.00,,,0.00,meteohub,2013-05-12 16:38:00,
2013-05-12 12:43:00,71.1,50.9,30.00,NW,315,2.0,4.0,49,0.00,,,0.00,meteohub,2013-05-12 16:43:00,
2013-05-12 12:48:00,71.1,50.4,30.00,NW,315,2.0,4.0,48,0.00,,,0.00,meteohub,2013-05-12 16:48:00,
2013-05-12 12:53:00,71.6,49.6,30.00,WNW,293,3.0,3.0,46,0.00,,,0.00,meteohub,2013-05-12 16:53:00,
2013-05-12 12:58:00,71.8,50.5,30.00,West,270,1.0,4.0,47,0.00,,,0.00,meteohub,2013-05-12 16:58:00,
2013-05-12 13:04:00,72.1,50.7,30.00,SW,225,2.0,4.0,47,0.00,,,0.00,meteohub,2013-05-12 17:04:00,
2013-05-12 13:09:00,72.3,50.9,30.00,North,0,4.0,4.0,47,0.00,,,0.00,meteohub,2013-05-12 17:09:00,
2013-05-12 13:14:00,71.8,49.3,30.01,NW,315,2.0,3.0,45,0.00,,,0.00,meteohub,2013-05-12 17:14:00,
2013-05-12 13:19:00,71.6,49.1,30.01,West,270,2.0,4.0,45,0.00,,,0.00,meteohub,2013-05-12 17:19:00,
2013-05-12 13:24:00,71.1,49.8,30.01,North,0,4.0,4.0,47,0.00,,,0.00,meteohub,2013-05-12 17:24:00,
2013-05-12 13:29:00,71.2,50.0,30.00,West,270,2.0,4.0,47,0.00,,,0.00,meteohub,2013-05-12 17:29:00,
2013-05-12 13:34:00,71.2,48.7,30.01,NW,315,3.0,4.0,45,0.00,,,0.00,meteohub,2013-05-12 17:34:00,
2013-05-12 13:39:00,71.6,50.4,30.01,West,270,2.0,4.0,47,0.00,,,0.00,meteohub,2013-05-12 17:39:00,
2013-05-12 13:45:00,71.8,49.3,30.01,West,270,2.0,4.0,45,0.00,,,0.00,meteohub,2013-05-12 17:45:00,
2013-05-12 13:50:00,71.2,49.5,30.01,West,270,2.0,3.0,46,0.00,,,0.00,meteohub,2013-05-12 17:50:00,
2013-05-12 13:55:00,71.2,48.2,30.01,West,270,4.0,4.0,44,0.00,,,0.00,meteohub,2013-05-12 17:55:00,
2013-05-12 14:00:00,71.4,48.4,30.01,North,0,2.0,4.0,44,0.00,,,0.00,meteohub,2013-05-12 18:00:00,
2013-05-12 14:05:00,71.8,48.7,30.00,West,270,2.0,4.0,44,0.00,,,0.00,meteohub,2013-05-12 18:05:00,
2013-05-12 14:10:00,71.8,46.8,30.01,NW,315,1.0,4.0,41,0.00,,,0.00,meteohub,2013-05-12 18:10:00,
2013-05-12 14:15:00,71.2,48.2,30.01,NE,45,3.0,4.0,44,0.00,,,0.00,meteohub,2013-05-12 18:15:00,
2013-05-12 14:20:00,70.7,47.7,30.01,West,270,2.0,4.0,44,0.00,,,0.00,meteohub,2013-05-12 18:20:00,
2013-05-12 14:26:00,70.9,48.6,30.01,West,270,1.0,4.0,45,0.00,,,0.00,meteohub,2013-05-12 18:26:00,
2013-05-12 14:31:00,71.2,48.2,30.00,NW,315,2.0,4.0,44,0.00,,,0.00,meteohub,2013-05-12 18:31:00,
2013-05-12 14:36:00,71.6,46.6,30.01,South,180,1.0,3.0,41,0.00,,,0.00,meteohub,2013-05-12 18:36:00,
2013-05-12 14:41:00,71.8,46.2,30.00,West,270,2.0,4.0,40,0.00,,,0.00,meteohub,2013-05-12 18:41:00,
2013-05-12 14:46:00,72.3,47.3,30.00,WSW,248,4.0,5.0,41,0.00,,,0.00,meteohub,2013-05-12 18:46:00,
2013-05-12 14:51:00,72.5,44.8,30.00,NW,315,2.0,5.0,37,0.00,,,0.00,meteohub,2013-05-12 18:51:00,
2013-05-12 14:57:00,72.5,44.1,30.01,North,0,3.0,5.0,36,0.00,,,0.00,meteohub,2013-05-12 18:57:00,
2013-05-12 15:02:00,72.7,44.2,30.01,West,270,2.0,6.0,36,0.00,,,0.00,meteohub,2013-05-12 19:02:00,
2013-05-12 15:07:00,73.0,43.7,30.01,WNW,293,2.0,6.0,35,0.00,,,0.00,meteohub,2013-05-12 19:07:00,
2013-05-12 15:12:00,72.9,43.5,30.01,NW,315,0.0,7.0,35,0.00,,,0.00,meteohub,2013-05-12 19:12:00,
2013-05-12 15:18:00,72.9,45.1,30.00,NW,315,0.0,7.0,37,0.00,,,0.00,meteohub,2013-05-12 19:18:00,
2013-05-12 15:23:00,72.7,44.2,30.00,NNE,23,0.0,7.0,36,0.00,,,0.00,meteohub,2013-05-12 19:23:00,
2013-05-12 15:29:00,72.0,42.8,30.01,East,90,0.0,2.0,35,0.00,,,0.00,meteohub,2013-05-12 19:29:00,
2013-05-12 15:34:00,71.4,44.4,30.00,North,0,1.0,1.0,38,0.00,,,0.00,meteohub,2013-05-12 19:34:00,
2013-05-12 15:39:00,71.4,45.9,30.00,West,270,0.0,1.0,40,0.00,,,0.00,meteohub,2013-05-12 19:39:00,
2013-05-12 15:44:00,71.6,46.0,30.00,North,0,0.0,2.0,40,0.00,,,0.00,meteohub,2013-05-12 19:44:00,
2013-05-12 15:49:00,71.6,45.3,30.00,West,270,0.0,2.0,39,0.00,,,0.00,meteohub,2013-05-12 19:49:00,
2013-05-12 15:54:00,71.8,44.1,30.00,West,270,0.0,1.0,37,0.00,,,0.00,meteohub,2013-05-12 19:54:00,
2013-05-12 15:59:00,72.3,47.3,30.00,West,270,0.0,1.0,41,0.00,,,0.00,meteohub,2013-05-12 19:59:00,
2013-05-12 16:04:00,72.5,44.1,29.99,North,0,3.0,3.0,36,0.00,,,0.00,meteohub,2013-05-12 20:04:00,
2013-05-12 16:09:00,72.7,43.5,29.99,NW,315,2.0,2.0,35,0.00,,,0.00,meteohub,2013-05-12 20:09:00,
2013-05-12 16:14:00,72.7,41.9,29.99,North,0,0.0,3.0,33,0.00,,,0.00,meteohub,2013-05-12 20:14:00,
2013-05-12 16:19:00,72.5,41.7,29.99,SW,225,0.0,3.0,33,0.00,,,0.00,meteohub,2013-05-12 20:19:00,
2013-05-12 16:24:00,72.5,42.6,30.00,West,270,0.0,2.0,34,0.00,,,0.00,meteohub,2013-05-12 20:24:00,
2013-05-12 16:30:00,72.5,41.0,30.00,NW,315,0.0,5.0,32,0.00,,,0.00,meteohub,2013-05-12 20:30:00,
2013-05-12 16:35:00,72.5,41.0,29.99,North,0,0.0,5.0,32,0.00,,,0.00,meteohub,2013-05-12 20:35:00,
2013-05-12 16:40:00,72.5,41.7,29.99,South,180,0.0,6.0,33,0.00,,,0.00,meteohub,2013-05-12 20:40:00,
2013-05-12 16:45:00,72.7,43.5,29.99,NW,315,0.0,6.0,35,0.00,,,0.00,meteohub,2013-05-12 20:45:00,
2013-05-12 16:50:00,72.9,41.4,29.99,West,270,3.0,4.0,32,0.00,,,0.00,meteohub,2013-05-12 20:50:00,
2013-05-12 16:55:00,72.5,41.0,30.00,NW,315,0.0,4.0,32,0.00,,,0.00,meteohub,2013-05-12 20:55:00,
2013-05-12 17:00:00,72.3,39.9,30.00,West,270,0.0,6.0,31,0.00,,,0.00,meteohub,2013-05-12 21:00:00,
2013-05-12 17:05:00,72.3,41.5,30.00,North,0,0.0,6.0,33,0.00,,,0.00,meteohub,2013-05-12 21:05:00,
2013-05-12 17:10:00,72.5,42.6,30.00,West,270,0.0,6.0,34,0.00,,,0.00,meteohub,2013-05-12 21:10:00,
2013-05-12 17:15:00,72.7,41.9,30.00,West,270,0.0,2.0,33,0.00,,,0.00,meteohub,2013-05-12 21:15:00,
2013-05-12 17:20:00,72.7,41.2,30.01,West,270,0.0,2.0,32,0.00,,,0.00,meteohub,2013-05-12 21:20:00,
2013-05-12 17:26:00,72.7,41.2,30.01,NNW,338,6.0,6.0,32,0.00,,,0.00,meteohub,2013-05-12 21:26:00,
2013-05-12 17:31:00,72.3,40.8,30.01,NW,315,2.0,6.0,32,0.00,,,0.00,meteohub,2013-05-12 21:31:00,
2013-05-12 17:36:00,72.3,39.9,30.01,NW,315,4.0,6.0,31,0.00,,,0.00,meteohub,2013-05-12 21:36:00,
2013-05-12 17:41:00,72.1,39.9,30.01,West,270,0.0,6.0,31,0.00,,,0.00,meteohub,2013-05-12 21:41:00,
2013-05-12 17:46:00,72.3,39.9,30.01,North,0,3.0,4.0,31,0.00,,,0.00,meteohub,2013-05-12 21:46:00,
2013-05-12 17:51:00,72.3,39.9,30.01,WNW,293,0.0,4.0,31,0.00,,,0.00,meteohub,2013-05-12 21:51:00,
2013-05-12 17:56:00,72.3,39.9,30.01,NW,315,0.0,3.0,31,0.00,,,0.00,meteohub,2013-05-12 21:56:00,
2013-05-12 18:02:00,72.3,40.8,30.01,NW,315,0.0,3.0,32,0.00,,,0.00,meteohub,2013-05-12 22:02:00,
2013-05-12 18:07:00,72.1,40.6,30.01,NW,315,0.0,3.0,32,0.00,,,0.00,meteohub,2013-05-12 22:07:00,
2013-05-12 18:12:00,72.0,39.7,30.01,NW,315,0.0,3.0,31,0.00,,,0.00,meteohub,2013-05-12 22:12:00,
2013-05-12 18:17:00,71.8,39.6,30.02,NW,315,0.0,1.0,31,0.00,,,0.00,meteohub,2013-05-12 22:17:00,
2013-05-12 18:22:00,71.6,39.4,30.02,NW,315,2.0,3.0,31,0.00,,,0.00,meteohub,2013-05-12 22:22:00,
2013-05-12 18:27:00,71.4,40.1,30.03,North,0,0.0,5.0,32,0.00,,,0.00,meteohub,2013-05-12 22:27:00,
2013-05-12 18:32:00,71.2,39.9,30.02,NW,315,0.0,5.0,32,0.00,,,0.00,meteohub,2013-05-12 22:32:00,
2013-05-12 18:37:00,71.2,40.6,30.03,NW,315,0.0,5.0,33,0.00,,,0.00,meteohub,2013-05-12 22:37:00,
2013-05-12 18:42:00,71.1,40.5,30.03,North,0,0.0,2.0,33,0.00,,,0.00,meteohub,2013-05-12 22:42:00,
2013-05-12 18:48:00,70.9,39.6,30.03,NW,315,0.0,3.0,32,0.00,,,0.00,meteohub,2013-05-12 22:48:00,
2013-05-12 18:53:00,70.7,40.1,30.03,North,0,0.0,3.0,33,0.00,,,0.00,meteohub,2013-05-12 22:53:00,
2013-05-12 18:58:00,70.5,40.1,30.04,West,270,0.0,3.0,33,0.00,,,0.00,meteohub,2013-05-12 22:58:00,
2013-05-12 19:03:00,70.2,39.7,30.04,North,0,0.0,0.0,33,0.00,,,0.00,meteohub,2013-05-12 23:03:00,
2013-05-12 19:08:00,70.2,39.7,30.04,West,270,0.0,0.0,33,0.00,,,0.00,meteohub,2013-05-12 23:08:00,
2013-05-12 19:13:00,69.8,39.4,30.04,North,0,0.0,1.0,33,0.00,,,0.00,meteohub,2013-05-12 23:13:00,
2013-05-12 19:18:00,69.8,38.7,30.04,North,0,0.0,1.0,32,0.00,,,0.00,meteohub,2013-05-12 23:18:00,
2013-05-12 19:24:00,69.4,39.0,30.05,West,270,0.0,1.0,33,0.00,,,0.00,meteohub,2013-05-12 23:24:00,
2013-05-12 19:29:00,69.3,39.7,30.05,NW,315,0.0,0.0,34,0.00,,,0.00,meteohub,2013-05-12 23:29:00,
2013-05-12 19:34:00,68.9,39.4,30.06,NW,315,0.0,0.0,34,0.00,,,0.00,meteohub,2013-05-12 23:34:00,
2013-05-12 19:39:00,68.7,39.2,30.06,West,270,0.0,0.0,34,0.00,,,0.00,meteohub,2013-05-12 23:39:00,
2013-05-12 19:44:00,68.4,39.6,30.06,NW,315,0.0,0.0,35,0.00,,,0.00,meteohub,2013-05-12 23:44:00,
2013-05-12 19:50:00,68.0,39.4,30.06,West,270,0.0,0.0,35,0.00,,,0.00,meteohub,2013-05-12 23:50:00,
2013-05-12 19:55:00,67.6,39.0,30.06,NW,315,0.0,0.0,35,0.00,,,0.00,meteohub,2013-05-12 23:55:00,
2013-05-12 20:00:00,67.3,40.1,30.06,NW,315,0.0,0.0,37,0.00,,,0.00,meteohub,2013-05-13 00:00:00,
2013-05-12 20:05:00,66.9,39.0,30.06,NW,315,0.0,0.0,36,0.00,,,0.00,meteohub,2013-05-13 00:05:00,
2013-05-12 20:10:00,66.6,39.6,30.07,NW,315,0.0,0.0,37,0.00,,,0.00,meteohub,2013-05-13 00:10:00,
2013-05-12 20:15:00,66.2,39.9,30.07,NW,315,0.0,0.0,38,0.00,,,0.00,meteohub,2013-05-13 00:15:00,
2013-05-12 20:20:00,66.0,41.0,30.07,NW,315,0.0,0.0,40,0.00,,,0.00,meteohub,2013-05-13 00:20:00,
2013-05-12 20:26:00,65.5,39.9,30.07,NW,315,0.0,0.0,39,0.00,,,0.00,meteohub,2013-05-13 00:26:00,
2013-05-12 20:31:00,65.3,39.7,30.07,NW,315,0.0,0.0,39,0.00,,,0.00,meteohub,2013-05-13 00:31:00,
2013-05-12 20:36:00,65.1,39.6,30.08,West,270,0.0,0.0,39,0.00,,,0.00,meteohub,2013-05-13 00:36:00,
2013-05-12 20:41:00,64.9,38.1,30.08,NW,315,0.0,0.0,37,0.00,,,0.00,meteohub,2013-05-13 00:41:00,
2013-05-12 20:46:00,64.8,38.5,30.08,NW,315,0.0,0.0,38,0.00,,,0.00,meteohub,2013-05-13 00:46:00,
2013-05-12 20:51:00,64.4,38.8,30.08,NW,315,0.0,0.0,39,0.00,,,0.00,meteohub,2013-05-13 00:51:00,
2013-05-12 20:56:00,64.0,37.9,30.09,North,0,0.0,0.0,38,0.00,,,0.00,meteohub,2013-05-13 00:56:00,
2013-05-12 21:01:00,63.9,38.5,30.09,North,0,0.0,0.0,39,0.00,,,0.00,meteohub,2013-05-13 01:01:00,
2013-05-12 21:06:00,63.7,38.3,30.09,North,0,0.0,0.0,39,0.00,,,0.00,meteohub,2013-05-13 01:06:00,
2013-05-12 21:11:00,63.5,36.7,30.10,North,0,0.0,0.0,37,0.00,,,0.00,meteohub,2013-05-13 01:11:00,
2013-05-12 21:17:00,63.3,36.0,30.10,North,0,0.0,0.0,36,0.00,,,0.00,meteohub,2013-05-13 01:17:00,
2013-05-12 21:22:00,63.1,36.5,30.10,North,0,0.0,0.0,37,0.00,,,0.00,meteohub,2013-05-13 01:22:00,
2013-05-12 21:27:00,63.1,35.1,30.10,North,0,0.0,0.0,35,0.00,,,0.00,meteohub,2013-05-13 01:27:00,
2013-05-12 21:32:00,63.0,34.9,30.11,North,0,0.0,0.0,35,0.00,,,0.00,meteohub,2013-05-13 01:32:00,
2013-05-12 21:37:00,62.8,35.4,30.11,North,0,0.0,0.0,36,0.00,,,0.00,meteohub,2013-05-13 01:37:00,
2013-05-12 21:42:00,62.6,35.2,30.11,North,0,0.0,0.0,36,0.00,,,0.00,meteohub,2013-05-13 01:42:00,
2013-05-12 21:48:00,62.2,35.6,30.12,North,0,0.0,0.0,37,0.00,,,0.00,meteohub,2013-05-13 01:48:00,
2013-05-12 21:53:00,62.1,36.1,30.12,North,0,0.0,0.0,38,0.00,,,0.00,meteohub,2013-05-13 01:53:00,
2013-05-12 21:58:00,61.7,35.8,30.12,North,0,0.0,0.0,38,0.00,,,0.00,meteohub,2013-05-13 01:58:00,
2013-05-12 22:04:00,61.5,36.3,30.12,North,0,0.0,0.0,39,0.00,,,0.00,meteohub,2013-05-13 02:04:00,
2013-05-12 22:10:00,61.3,34.9,30.12,North,0,0.0,0.0,37,0.00,,,0.00,meteohub,2013-05-13 02:10:00,
2013-05-12 22:15:00,61.2,34.7,30.12,North,0,0.0,0.0,37,0.00,,,0.00,meteohub,2013-05-13 02:15:00,
2013-05-12 22:20:00,61.2,34.0,30.13,NW,315,0.0,0.0,36,0.00,,,0.00,meteohub,2013-05-13 02:20:00,
2013-05-12 22:25:00,61.2,34.0,30.13,North,0,0.0,0.0,36,0.00,,,0.00,meteohub,2013-05-13 02:25:00,
2013-05-12 22:30:00,61.0,33.8,30.13,North,0,0.0,0.0,36,0.00,,,0.00,meteohub,2013-05-13 02:30:00,
2013-05-12 22:35:00,60.8,32.9,30.13,North,0,0.0,0.0,35,0.00,,,0.00,meteohub,2013-05-13 02:35:00,
2013-05-12 22:40:00,60.6,33.4,30.13,North,0,0.0,0.0,36,0.00,,,0.00,meteohub,2013-05-13 02:40:00,
2013-05-12 22:46:00,60.4,33.4,30.13,North,0,0.0,0.0,36,0.00,,,0.00,meteohub,2013-05-13 02:46:00,
2013-05-12 22:51:00,60.3,33.3,30.13,North,0,0.0,0.0,36,0.00,,,0.00,meteohub,2013-05-13 02:51:00,
2013-05-12 22:56:00,60.1,33.1,30.13,North,0,0.0,0.0,36,0.00,,,0.00,meteohub,2013-05-13 02:56:00,
2013-05-12 23:01:00,60.1,33.8,30.14,North,0,0.0,0.0,37,0.00,,,0.00,meteohub,2013-05-13 03:01:00,
2013-05-12 23:06:00,59.7,34.0,30.13,North,0,0.0,0.0,38,0.00,,,0.00,meteohub,2013-05-13 03:06:00,
2013-05-12 23:11:00,59.5,33.3,30.13,North,0,0.0,0.0,37,0.00,,,0.00,meteohub,2013-05-13 03:11:00,
2013-05-12 23:17:00,59.4,33.8,30.13,North,0,0.0,0.0,38,0.00,,,0.00,meteohub,2013-05-13 03:17:00,
2013-05-12 23:22:00,59.2,33.6,30.13,North,0,0.0,0.0,38,0.00,,,0.00,meteohub,2013-05-13 03:22:00,
2013-05-12 23:27:00,59.0,34.2,30.13,North,0,0.0,0.0,39,0.00,,,0.00,meteohub,2013-05-13 03:27:00,
2013-05-12 23:32:00,58.8,35.2,30.13,North,0,0.0,0.0,41,0.00,,,0.00,meteohub,2013-05-13 03:32:00,
2013-05-12 23:38:00,58.6,35.1,30.13,North,0,0.0,0.0,41,0.00,,,0.00,meteohub,2013-05-13 03:38:00,
2013-05-12 23:43:00,58.5,34.9,30.13,North,0,0.0,0.0,41,0.00,,,0.00,meteohub,2013-05-13 03:43:00,
2013-05-12 23:48:00,58.3,35.2,30.14,North,0,0.0,0.0,42,0.00,,,0.00,meteohub,2013-05-13 03:48:00,
2013-05-12 23:53:00,58.1,35.1,30.14,North,0,0.0,0.0,42,0.00,,,0.00,meteohub,2013-05-13 03:53:00,
2013-05-12 23:58:00,57.9,35.6,30.14,North,0,0.0,0.0,43,0.00,,,0.00,meteohub,2013-05-13 03:58:00,